Latest Weather Observations for South Channel Island

IDV60901

Issued at 8:22 pm EDT Thursday 18 December 2014 (issued every 10 minutes, with the page automatically refreshed every 10 minutes)

About weather observations | Map of Melbourne area stations | Latest observations for Melbourne area | Other Formats
Station Details ID: 086344 Name: SOUTH CHANNEL ISLAND Lat: -38.31 Lon: 144.80 Height: 9.0 m
Data from the previous 72 hours. | See also: Recent months for locations in Victoria
Date/Time
EDT
Tmp

°C
App
Tmp
°C
Dew
Point
°C
Rel
Hum
%
Delta-T

°C
Wind Press
QNH
hPa
Press
MSL
hPa
Rain
since
9 am
mm
Dir
 
Spd
km/h
Gust
km/h
Spd
kts
Gust
kts
18/08:00pm - - - - - WSW 35 43 19 23 - - -
18/07:30pm - - - - - WSW 22 28 12 15 - - -
18/07:00pm - - - - - WSW 22 30 12 16 - - -
18/06:30pm - - - - - WSW 26 33 14 18 - - -
18/06:00pm - - - - - WSW 22 28 12 15 - - -
18/05:30pm - - - - - WSW 24 30 13 16 - - -
18/05:00pm - - - - - W 30 33 16 18 - - -
18/04:30pm - - - - - W 35 39 19 21 - - -
18/04:00pm - - - - - WSW 43 52 23 28 - - -
18/03:54pm - - - - - WSW 46 54 25 29 - - -
18/03:30pm - - - - - WSW 61 72 33 39 - - -
18/03:08pm - - - - - WSW 50 83 27 45 - - -
18/03:06pm - - - - - SW 46 83 25 45 - - -
18/03:04pm - - - - - SW 39 78 21 42 - - -
18/03:00pm - - - - - SW 35 43 19 23 - - -
18/02:30pm - - - - - SW 35 41 19 22 - - -
18/02:00pm - - - - - WSW 32 44 17 24 - - -
18/01:30pm - - - - - WSW 26 37 14 20 - - -
18/01:00pm - - - - - W 24 32 13 17 - - -
18/12:30pm - - - - - W 35 39 19 21 - - -
18/12:00pm - - - - - W 33 39 18 21 - - -
18/11:30am - - - - - WNW 32 37 17 20 - - -
18/11:00am - - - - - W 35 41 19 22 - - -
18/10:30am - - - - - W 37 44 20 24 - - -
18/10:00am - - - - - WNW 32 39 17 21 - - -
18/09:30am - - - - - WNW 32 37 17 20 - - -
18/09:00am - - - - - NNW 19 26 10 14 - - -
18/08:30am - - - - - NW 17 20 9 11 - - -
18/08:00am - - - - - NNW 17 19 9 10 - - -
18/07:30am - - - - - NW 17 20 9 11 - - -
18/07:00am - - - - - N 15 19 8 10 - - -
18/06:30am - - - - - NE 15 19 8 10 - - -
18/06:00am - - - - - ENE 11 15 6 8 - - -
18/05:30am - - - - - E 13 15 7 8 - - -
18/05:00am - - - - - E 13 17 7 9 - - -
18/04:30am - - - - - E 11 15 6 8 - - -
18/04:00am - - - - - ENE 11 13 6 7 - - -
18/03:30am - - - - - ENE 15 17 8 9 - - -
18/03:00am - - - - - E 17 20 9 11 - - -
18/02:30am - - - - - E 20 24 11 13 - - -
18/02:00am - - - - - E 28 33 15 18 - - -
18/01:30am - - - - - ESE 19 28 10 15 - - -
18/01:00am - - - - - SE 17 19 9 10 - - -
18/12:30am - - - - - E 28 33 15 18 - - -
18/12:00am - - - - - ESE 13 17 7 9 - - -
 
Date/Time
EDT
Tmp

°C
App
Tmp
°C
Dew
Point
°C
Rel
Hum
%
Delta-T

°C
Wind Press
QNH
hPa
Press
MSL
hPa
Rain
since
9 am
mm
Dir
 
Spd
km/h
Gust
km/h
Spd
kts
Gust
kts
17/11:30pm - - - - - ESE 17 22 9 12 - - -
17/11:00pm - - - - - SE 20 26 11 14 - - -
17/10:30pm - - - - - SE 26 30 14 16 - - -
17/10:00pm - - - - - SE 22 28 12 15 - - -
17/09:30pm - - - - - SE 22 26 12 14 - - -
17/09:00pm - - - - - SSE 24 30 13 16 - - -
17/08:30pm - - - - - SE 28 32 15 17 - - -
17/08:00pm - - - - - SSE 26 32 14 17 - - -
17/07:30pm - - - - - SSE 28 32 15 17 - - -
17/07:00pm - - - - - S 32 35 17 19 - - -
17/06:30pm - - - - - S 30 35 16 19 - - -
17/06:00pm - - - - - S 28 32 15 17 - - -
17/05:30pm - - - - - S 30 33 16 18 - - -
17/05:00pm - - - - - S 28 32 15 17 - - -
17/04:30pm - - - - - S 26 32 14 17 - - -
17/04:00pm - - - - - S 22 30 12 16 - - -
17/03:30pm - - - - - S 20 26 11 14 - - -
17/03:00pm - - - - - S 19 28 10 15 - - -
17/02:30pm - - - - - SSW 24 28 13 15 - - -
17/02:00pm - - - - - SSW 11 15 6 8 - - -
17/01:30pm - - - - - S 13 17 7 9 - - -
17/01:00pm - - - - - SSW 13 19 7 10 - - -
17/12:30pm - - - - - SW 17 24 9 13 - - -
17/12:00pm - - - - - SW 17 22 9 12 - - -
17/11:30am - - - - - SW 22 30 12 16 - - -
17/11:00am - - - - - WSW 22 32 12 17 - - -
17/10:30am - - - - - WSW 26 32 14 17 - - -
17/10:00am - - - - - W 28 33 15 18 - - -
17/09:30am - - - - - W 30 35 16 19 - - -
17/09:00am - - - - - W 32 37 17 20 - - -
17/08:30am - - - - - W 32 35 17 19 - - -
17/08:00am - - - - - WNW 32 35 17 19 - - -
17/07:30am - - - - - WNW 33 37 18 20 - - -
17/07:00am - - - - - WNW 35 39 19 21 - - -
17/06:30am - - - - - WNW 33 39 18 21 - - -
17/06:00am - - - - - WNW 33 37 18 20 - - -
17/05:30am - - - - - WNW 32 35 17 19 - - -
17/05:00am - - - - - WNW 35 41 19 22 - - -
17/04:30am - - - - - WNW 35 41 19 22 - - -
17/04:00am - - - - - WNW 35 41 19 22 - - -
17/03:30am - - - - - WNW 37 41 20 22 - - -
17/03:00am - - - - - WNW 35 44 19 24 - - -
17/02:30am - - - - - WNW 37 43 20 23 - - -
17/02:00am - - - - - WNW 33 37 18 20 - - -
17/01:30am - - - - - WNW 33 37 18 20 - - -
17/01:00am - - - - - W 32 39 17 21 - - -
17/12:30am - - - - - WSW 33 39 18 21 - - -
17/12:00am - - - - - WSW 39 48 21 26 - - -
 
Date/Time
EDT
Tmp

°C
App
Tmp
°C
Dew
Point
°C
Rel
Hum
%
Delta-T

°C
Wind Press
QNH
hPa
Press
MSL
hPa
Rain
since
9 am
mm
Dir
 
Spd
km/h
Gust
km/h
Spd
kts
Gust
kts
16/11:30pm - - - - - WSW 41 50 22 27 - - -
16/11:00pm - - - - - WSW 43 50 23 27 - - -
16/10:30pm - - - - - WSW 43 52 23 28 - - -
16/10:00pm - - - - - W 46 54 25 29 - - -
16/09:30pm - - - - - WSW 46 57 25 31 - - -
16/09:00pm - - - - - W 57 69 31 37 - - -
16/08:30pm - - - - - WSW 61 74 33 40 - - -
16/08:00pm - - - - - W 56 67 30 36 - - -
16/07:30pm - - - - - W 61 78 33 42 - - -
16/07:00pm - - - - - W 56 72 30 39 - - -
16/06:55pm - - - - - W 54 72 29 39 - - -
16/06:30pm - - - - - W 61 76 33 41 - - -
16/06:00pm - - - - - W 54 67 29 36 - - -
16/05:35pm - - - - - W 69 87 37 47 - - -
16/05:30pm - - - - - W 70 85 38 46 - - -
16/05:23pm - - - - - W 76 95 41 51 - - -
16/05:07pm - - - - - W 72 96 39 52 - - -
16/05:01pm - - - - - W 61 89 33 48 - - -
16/05:00pm - - - - - W 61 78 33 42 - - -
16/04:47pm - - - - - W 37 74 20 40 - - -
16/04:45pm - - - - - W 32 50 17 27 - - -
16/04:30pm - - - - - SW 28 32 15 17 - - -
16/04:00pm - - - - - SSW 26 33 14 18 - - -
16/03:30pm - - - - - S 33 37 18 20 - - -
16/03:00pm - - - - - SSW 48 56 26 30 - - -
16/02:30pm - - - - - SSW 33 57 18 31 - - -
16/02:27pm - - - - - S 24 50 13 27 - - -
16/02:00pm - - - - - ENE 15 19 8 10 - - -
16/01:30pm - - - - - NE 24 30 13 16 - - -
16/01:00pm - - - - - ENE 28 32 15 17 - - -
16/12:30pm - - - - - E 17 20 9 11 - - -
16/12:00pm - - - - - ESE 11 15 6 8 - - -
16/11:30am - - - - - ENE 4 7 2 4 - - -
16/11:00am - - - - - SE 6 7 3 4 - - -
16/10:30am - - - - - SW 13 15 7 8 - - -
16/10:00am - - - - - W 24 30 13 16 - - -
16/09:30am - - - - - W 30 33 16 18 - - -
16/09:00am - - - - - W 32 39 17 21 - - -
16/08:30am - - - - - W 33 35 18 19 - - -
16/08:00am - - - - - W 32 37 17 20 - - -
16/07:30am - - - - - WNW 28 33 15 18 - - -
16/07:00am - - - - - WNW 19 22 10 12 - - -
16/06:30am - - - - - WNW 13 17 7 9 - - -
16/06:00am - - - - - W 13 15 7 8 - - -
16/05:30am - - - - - W 19 20 10 11 - - -
16/05:00am - - - - - NNW 9 15 5 8 - - -
16/04:30am - - - - - N 13 17 7 9 - - -
16/04:00am - - - - - N 13 17 7 9 - - -
16/03:30am - - - - - N 15 19 8 10 - - -
16/03:00am - - - - - ENE 7 11 4 6 - - -
16/02:30am - - - - - S 17 22 9 12 - - -
16/02:00am - - - - - SSE 17 22 9 12 - - -
16/01:30am - - - - - S 24 30 13 16 - - -
16/01:00am - - - - - SSE 22 28 12 15 - - -
16/12:30am - - - - - SSE 20 24 11 13 - - -
16/12:00am - - - - - S 30 33 16 18 - - -
 
Date/Time
EDT
Tmp

°C
App
Tmp
°C
Dew
Point
°C
Rel
Hum
%
Delta-T

°C
Wind Press
QNH
hPa
Press
MSL
hPa
Rain
since
9 am
mm
Dir
 
Spd
km/h
Gust
km/h
Spd
kts
Gust
kts
15/11:30pm - - - - - SSE 30 33 16 18 - - -
15/11:00pm - - - - - SSE 24 28 13 15 - - -
15/10:30pm - - - - - SSE 24 28 13 15 - - -
15/10:00pm - - - - - SE 35 39 19 21 - - -
15/09:30pm - - - - - SE 37 44 20 24 - - -
15/09:00pm - - - - - SSE 33 41 18 22 - - -
15/08:30pm - - - - - SSE 32 37 17 20 - - -

Latest Capital City Observations: Canberra | Sydney | Melbourne | Brisbane | Adelaide | Perth | Hobart | Darwin

Other Formats:

Comma delimited format used in spreadsheet applications
http://www.bom.gov.au/fwo/IDV60901/IDV60901.94853.axf

JavaScript Object Notation format (JSON) in row-major order
http://www.bom.gov.au/fwo/IDV60901/IDV60901.94853.json